sensor_id;sensor_type;location;lat;lon;timestamp;temperature;humidity
50738;DHT22;36703;48.154;17.126;2022-11-15T00:01:46;11.30;57.90
50738;DHT22;36703;48.154;17.126;2022-11-15T00:06:06;11.30;57.80
50738;DHT22;36703;48.154;17.126;2022-11-15T00:10:26;11.30;57.70
50738;DHT22;36703;48.154;17.126;2022-11-15T00:14:47;11.20;57.60
50738;DHT22;36703;48.154;17.126;2022-11-15T00:19:07;11.20;57.70
50738;DHT22;36703;48.154;17.126;2022-11-15T00:23:27;11.20;57.50
50738;DHT22;36703;48.154;17.126;2022-11-15T00:27:47;11.20;57.60
50738;DHT22;36703;48.154;17.126;2022-11-15T00:32:10;11.20;57.50
50738;DHT22;36703;48.154;17.126;2022-11-15T00:36:33;11.20;57.50
50738;DHT22;36703;48.154;17.126;2022-11-15T00:40:54;11.10;57.40
50738;DHT22;36703;48.154;17.126;2022-11-15T00:45:14;11.10;57.50
50738;DHT22;36703;48.154;17.126;2022-11-15T00:49:35;11.10;57.50
50738;DHT22;36703;48.154;17.126;2022-11-15T00:53:55;11.10;57.50
50738;DHT22;36703;48.154;17.126;2022-11-15T00:58:15;11.00;57.50
50738;DHT22;36703;48.154;17.126;2022-11-15T01:02:35;11.00;57.60
50738;DHT22;36703;48.154;17.126;2022-11-15T01:06:55;11.00;57.70
50738;DHT22;36703;48.154;17.126;2022-11-15T01:11:15;11.00;57.80
50738;DHT22;36703;48.154;17.126;2022-11-15T01:15:39;11.00;57.90
50738;DHT22;36703;48.154;17.126;2022-11-15T01:20:00;11.00;57.90
50738;DHT22;36703;48.154;17.126;2022-11-15T01:24:20;11.00;57.90
50738;DHT22;36703;48.154;17.126;2022-11-15T01:28:41;11.00;57.90
50738;DHT22;36703;48.154;17.126;2022-11-15T01:33:02;10.90;57.90
50738;DHT22;36703;48.154;17.126;2022-11-15T01:37:22;10.90;58.00
50738;DHT22;36703;48.154;17.126;2022-11-15T01:41:42;10.90;58.00
50738;DHT22;36703;48.154;17.126;2022-11-15T01:50:35;10.80;58.20
50738;DHT22;36703;48.154;17.126;2022-11-15T01:59:43;10.80;58.60
50738;DHT22;36703;48.154;17.126;2022-11-15T02:04:13;10.80;58.40
50738;DHT22;36703;48.154;17.126;2022-11-15T02:08:35;10.90;59.10
50738;DHT22;36703;48.154;17.126;2022-11-15T02:12:57;10.90;58.40
50738;DHT22;36703;48.154;17.126;2022-11-15T02:17:41;11.00;58.50
50738;DHT22;36703;48.154;17.126;2022-11-15T02:22:37;11.00;58.50
50738;DHT22;36703;48.154;17.126;2022-11-15T02:32:18;11.00;58.60
50738;DHT22;36703;48.154;17.126;2022-11-15T02:41:57;11.00;58.60
50738;DHT22;36703;48.154;17.126;2022-11-15T02:51:12;11.10;58.70
50738;DHT22;36703;48.154;17.126;2022-11-15T03:00:09;11.00;58.90
50738;DHT22;36703;48.154;17.126;2022-11-15T03:09:48;11.00;58.90
50738;DHT22;36703;48.154;17.126;2022-11-15T03:14:35;11.00;59.00
50738;DHT22;36703;48.154;17.126;2022-11-15T03:19:06;11.00;59.30
50738;DHT22;36703;48.154;17.126;2022-11-15T03:23:28;11.00;59.10
50738;DHT22;36703;48.154;17.126;2022-11-15T03:27:52;11.00;59.20
50738;DHT22;36703;48.154;17.126;2022-11-15T03:32:22;11.00;59.30
50738;DHT22;36703;48.154;17.126;2022-11-15T03:36:45;11.00;59.40
50738;DHT22;36703;48.154;17.126;2022-11-15T03:41:14;11.00;59.50
50738;DHT22;36703;48.154;17.126;2022-11-15T03:45:46;11.00;59.60
50738;DHT22;36703;48.154;17.126;2022-11-15T03:50:11;11.00;59.70
50738;DHT22;36703;48.154;17.126;2022-11-15T03:54:33;11.00;59.80
50738;DHT22;36703;48.154;17.126;2022-11-15T03:58:53;11.00;59.90
50738;DHT22;36703;48.154;17.126;2022-11-15T04:03:13;11.10;60.00
50738;DHT22;36703;48.154;17.126;2022-11-15T04:07:34;11.10;60.00
50738;DHT22;36703;48.154;17.126;2022-11-15T04:11:54;11.10;60.10
50738;DHT22;36703;48.154;17.126;2022-11-15T04:16:14;11.10;60.20
50738;DHT22;36703;48.154;17.126;2022-11-15T04:20:34;11.10;60.30
50738;DHT22;36703;48.154;17.126;2022-11-15T04:25:13;11.10;60.40
50738;DHT22;36703;48.154;17.126;2022-11-15T04:29:33;11.20;60.50
50738;DHT22;36703;48.154;17.126;2022-11-15T04:33:54;11.20;61.30
50738;DHT22;36703;48.154;17.126;2022-11-15T04:38:14;11.20;60.60
50738;DHT22;36703;48.154;17.126;2022-11-15T04:42:35;11.20;60.50
50738;DHT22;36703;48.154;17.126;2022-11-15T04:46:56;11.20;60.70
50738;DHT22;36703;48.154;17.126;2022-11-15T04:51:16;11.20;60.80
50738;DHT22;36703;48.154;17.126;2022-11-15T04:55:37;11.20;60.70
50738;DHT22;36703;48.154;17.126;2022-11-15T04:59:57;11.30;60.80
50738;DHT22;36703;48.154;17.126;2022-11-15T05:04:17;11.30;60.70
50738;DHT22;36703;48.154;17.126;2022-11-15T05:08:40;11.30;60.80
50738;DHT22;36703;48.154;17.126;2022-11-15T05:13:01;11.20;60.80
50738;DHT22;36703;48.154;17.126;2022-11-15T05:17:22;11.20;60.90
50738;DHT22;36703;48.154;17.126;2022-11-15T05:21:42;11.20;60.80
50738;DHT22;36703;48.154;17.126;2022-11-15T05:26:04;11.20;60.90
50738;DHT22;36703;48.154;17.126;2022-11-15T05:30:25;11.20;60.90
50738;DHT22;36703;48.154;17.126;2022-11-15T05:34:45;11.20;61.00
50738;DHT22;36703;48.154;17.126;2022-11-15T05:39:07;11.20;60.90
50738;DHT22;36703;48.154;17.126;2022-11-15T05:43:29;11.30;61.10
50738;DHT22;36703;48.154;17.126;2022-11-15T05:47:51;11.30;61.60
50738;DHT22;36703;48.154;17.126;2022-11-15T05:52:13;11.30;60.90
50738;DHT22;36703;48.154;17.126;2022-11-15T05:56:35;11.30;60.90
50738;DHT22;36703;48.154;17.126;2022-11-15T06:00:55;11.30;60.80
50738;DHT22;36703;48.154;17.126;2022-11-15T06:05:16;11.20;60.80
50738;DHT22;36703;48.154;17.126;2022-11-15T06:09:36;11.20;60.90
50738;DHT22;36703;48.154;17.126;2022-11-15T06:13:56;11.30;61.00
50738;DHT22;36703;48.154;17.126;2022-11-15T06:18:16;11.20;60.90
50738;DHT22;36703;48.154;17.126;2022-11-15T06:22:37;11.30;60.90
50738;DHT22;36703;48.154;17.126;2022-11-15T06:26:57;11.30;60.90
50738;DHT22;36703;48.154;17.126;2022-11-15T06:31:18;11.30;60.80
50738;DHT22;36703;48.154;17.126;2022-11-15T06:35:39;11.30;60.90
50738;DHT22;36703;48.154;17.126;2022-11-15T06:39:59;11.30;60.80
50738;DHT22;36703;48.154;17.126;2022-11-15T06:44:19;11.30;60.80
50738;DHT22;36703;48.154;17.126;2022-11-15T06:48:39;11.30;60.60
50738;DHT22;36703;48.154;17.126;2022-11-15T06:53:03;11.30;60.60
50738;DHT22;36703;48.154;17.126;2022-11-15T06:57:24;11.30;60.50
50738;DHT22;36703;48.154;17.126;2022-11-15T07:01:44;11.30;60.50
50738;DHT22;36703;48.154;17.126;2022-11-15T07:06:05;11.30;60.40
50738;DHT22;36703;48.154;17.126;2022-11-15T07:10:26;11.30;60.30
50738;DHT22;36703;48.154;17.126;2022-11-15T07:14:47;11.40;61.00
50738;DHT22;36703;48.154;17.126;2022-11-15T07:19:08;11.40;60.20
50738;DHT22;36703;48.154;17.126;2022-11-15T07:23:28;11.40;60.10
50738;DHT22;36703;48.154;17.126;2022-11-15T07:27:57;11.40;60.00
50738;DHT22;36703;48.154;17.126;2022-11-15T07:32:18;11.30;60.00
50738;DHT22;36703;48.154;17.126;2022-11-15T07:36:38;11.40;60.00
50738;DHT22;36703;48.154;17.126;2022-11-15T07:41:03;11.40;60.00
50738;DHT22;36703;48.154;17.126;2022-11-15T07:45:25;11.40;60.00
50738;DHT22;36703;48.154;17.126;2022-11-15T07:49:48;11.40;59.90
50738;DHT22;36703;48.154;17.126;2022-11-15T07:54:08;11.40;59.90
50738;DHT22;36703;48.154;17.126;2022-11-15T07:58:29;11.50;59.80
50738;DHT22;36703;48.154;17.126;2022-11-15T08:02:49;11.50;59.80
50738;DHT22;36703;48.154;17.126;2022-11-15T08:07:09;11.50;59.80
50738;DHT22;36703;48.154;17.126;2022-11-15T08:11:30;11.50;59.80
50738;DHT22;36703;48.154;17.126;2022-11-15T08:15:50;11.60;59.70
50738;DHT22;36703;48.154;17.126;2022-11-15T08:20:13;11.60;59.60
50738;DHT22;36703;48.154;17.126;2022-11-15T08:24:33;11.60;59.50
50738;DHT22;36703;48.154;17.126;2022-11-15T08:28:53;11.60;60.10
50738;DHT22;36703;48.154;17.126;2022-11-15T08:33:14;11.60;59.60
50738;DHT22;36703;48.154;17.126;2022-11-15T08:37:34;11.60;59.60
50738;DHT22;36703;48.154;17.126;2022-11-15T08:41:55;11.60;59.60
50738;DHT22;36703;48.154;17.126;2022-11-15T08:46:15;11.60;59.40
50738;DHT22;36703;48.154;17.126;2022-11-15T08:50:35;11.60;59.40
50738;DHT22;36703;48.154;17.126;2022-11-15T08:54:56;11.70;59.50
50738;DHT22;36703;48.154;17.126;2022-11-15T08:59:16;11.70;59.50
50738;DHT22;36703;48.154;17.126;2022-11-15T09:03:36;11.70;59.50
50738;DHT22;36703;48.154;17.126;2022-11-15T09:07:59;11.70;59.40
50738;DHT22;36703;48.154;17.126;2022-11-15T09:12:19;11.70;59.40
50738;DHT22;36703;48.154;17.126;2022-11-15T09:16:40;11.70;59.30
50738;DHT22;36703;48.154;17.126;2022-11-15T09:21:00;11.70;59.40
50738;DHT22;36703;48.154;17.126;2022-11-15T09:25:22;11.70;59.50
50738;DHT22;36703;48.154;17.126;2022-11-15T09:29:43;11.70;59.50
50738;DHT22;36703;48.154;17.126;2022-11-15T09:34:03;11.80;59.50
50738;DHT22;36703;48.154;17.126;2022-11-15T09:38:23;11.80;59.50
50738;DHT22;36703;48.154;17.126;2022-11-15T09:52:18;11.80;59.40
50738;DHT22;36703;48.154;17.126;2022-11-15T09:56:29;11.90;59.50
50738;DHT22;36703;48.154;17.126;2022-11-15T10:00:39;11.90;59.40
50738;DHT22;36703;48.154;17.126;2022-11-15T10:04:43;12.00;59.60
50738;DHT22;36703;48.154;17.126;2022-11-15T10:09:09;12.00;59.50
50738;DHT22;36703;48.154;17.126;2022-11-15T10:13:26;12.10;59.60
50738;DHT22;36703;48.154;17.126;2022-11-15T10:17:38;12.20;59.50
50738;DHT22;36703;48.154;17.126;2022-11-15T10:26:30;12.40;59.30
50738;DHT22;36703;48.154;17.126;2022-11-15T10:30:39;12.50;59.30
50738;DHT22;36703;48.154;17.126;2022-11-15T10:34:48;12.60;59.30
50738;DHT22;36703;48.154;17.126;2022-11-15T10:38:52;12.60;59.20
50738;DHT22;36703;48.154;17.126;2022-11-15T10:43:24;12.60;59.30
50738;DHT22;36703;48.154;17.126;2022-11-15T10:47:29;12.60;59.30
50738;DHT22;36703;48.154;17.126;2022-11-15T10:51:33;12.60;59.30
50738;DHT22;36703;48.154;17.126;2022-11-15T10:55:47;12.60;59.40
50738;DHT22;36703;48.154;17.126;2022-11-15T10:59:56;12.60;59.40
50738;DHT22;36703;48.154;17.126;2022-11-15T11:12:12;12.60;59.40
50738;DHT22;36703;48.154;17.126;2022-11-15T11:16:37;12.50;59.50
50738;DHT22;36703;48.154;17.126;2022-11-15T11:20:54;12.50;59.70
50738;DHT22;36703;48.154;17.126;2022-11-15T11:29:34;12.60;59.70
50738;DHT22;36703;48.154;17.126;2022-11-15T11:38:32;12.70;59.70
50738;DHT22;36703;48.154;17.126;2022-11-15T11:43:16;12.70;59.80
50738;DHT22;36703;48.154;17.126;2022-11-15T11:47:31;12.70;59.90
50738;DHT22;36703;48.154;17.126;2022-11-15T11:51:47;12.70;59.90
50738;DHT22;36703;48.154;17.126;2022-11-15T11:55:57;12.70;60.00
50738;DHT22;36703;48.154;17.126;2022-11-15T12:00:20;12.80;60.00
50738;DHT22;36703;48.154;17.126;2022-11-15T12:04:30;12.80;59.90
50738;DHT22;36703;48.154;17.126;2022-11-15T12:08:59;12.80;59.90
50738;DHT22;36703;48.154;17.126;2022-11-15T12:13:13;12.80;60.00
50738;DHT22;36703;48.154;17.126;2022-11-15T12:17:24;12.80;60.10
50738;DHT22;36703;48.154;17.126;2022-11-15T12:26:08;12.70;60.20
50738;DHT22;36703;48.154;17.126;2022-11-15T12:30:19;12.70;60.30
50738;DHT22;36703;48.154;17.126;2022-11-15T12:47:24;12.70;60.60
50738;DHT22;36703;48.154;17.126;2022-11-15T13:00:36;12.60;60.80
50738;DHT22;36703;48.154;17.126;2022-11-15T13:04:29;12.60;60.80
50738;DHT22;36703;48.154;17.126;2022-11-15T13:08:43;12.60;60.80
50738;DHT22;36703;48.154;17.126;2022-11-15T13:12:50;12.60;61.00
50738;DHT22;36703;48.154;17.126;2022-11-15T13:16:59;12.70;61.30
50738;DHT22;36703;48.154;17.126;2022-11-15T13:21:03;12.70;61.40
50738;DHT22;36703;48.154;17.126;2022-11-15T13:30:04;12.70;61.60
50738;DHT22;36703;48.154;17.126;2022-11-15T13:38:36;12.60;61.80
50738;DHT22;36703;48.154;17.126;2022-11-15T13:42:39;12.70;61.90
50738;DHT22;36703;48.154;17.126;2022-11-15T13:46:42;12.60;61.90
50738;DHT22;36703;48.154;17.126;2022-11-15T13:50:43;12.60;61.80
50738;DHT22;36703;48.154;17.126;2022-11-15T13:54:52;12.60;62.00
50738;DHT22;36703;48.154;17.126;2022-11-15T13:58:58;12.60;62.20
50738;DHT22;36703;48.154;17.126;2022-11-15T14:07:21;12.60;62.40
50738;DHT22;36703;48.154;17.126;2022-11-15T14:11:23;12.60;62.50
50738;DHT22;36703;48.154;17.126;2022-11-15T14:15:34;12.60;62.50
50738;DHT22;36703;48.154;17.126;2022-11-15T14:19:38;12.60;62.60
50738;DHT22;36703;48.154;17.126;2022-11-15T14:23:41;12.70;62.70
50738;DHT22;36703;48.154;17.126;2022-11-15T14:32:23;12.70;62.80
50738;DHT22;36703;48.154;17.126;2022-11-15T14:36:30;12.70;63.60
50738;DHT22;36703;48.154;17.126;2022-11-15T14:40:32;12.60;63.00
50738;DHT22;36703;48.154;17.126;2022-11-15T14:44:34;12.70;63.10
50738;DHT22;36703;48.154;17.126;2022-11-15T14:48:36;12.70;63.20
50738;DHT22;36703;48.154;17.126;2022-11-15T14:52:37;12.70;63.10
50738;DHT22;36703;48.154;17.126;2022-11-15T14:56:39;12.80;63.20
50738;DHT22;36703;48.154;17.126;2022-11-15T15:00:42;12.80;63.10
50738;DHT22;36703;48.154;17.126;2022-11-15T15:04:43;12.80;63.10
50738;DHT22;36703;48.154;17.126;2022-11-15T15:08:46;12.80;63.10
50738;DHT22;36703;48.154;17.126;2022-11-15T15:12:49;12.70;63.20
50738;DHT22;36703;48.154;17.126;2022-11-15T15:16:51;12.80;63.40
50738;DHT22;36703;48.154;17.126;2022-11-15T15:20:57;12.80;63.40
50738;DHT22;36703;48.154;17.126;2022-11-15T15:25:29;12.80;63.50
50738;DHT22;36703;48.154;17.126;2022-11-15T15:29:33;12.80;63.40
50738;DHT22;36703;48.154;17.126;2022-11-15T15:33:34;12.80;63.40
50738;DHT22;36703;48.154;17.126;2022-11-15T15:37:36;12.80;63.50
50738;DHT22;36703;48.154;17.126;2022-11-15T15:41:38;12.80;63.50
50738;DHT22;36703;48.154;17.126;2022-11-15T15:45:41;12.80;63.50
50738;DHT22;36703;48.154;17.126;2022-11-15T15:49:42;12.80;63.60
50738;DHT22;36703;48.154;17.126;2022-11-15T15:53:44;12.80;63.60
50738;DHT22;36703;48.154;17.126;2022-11-15T15:57:46;12.90;63.60
50738;DHT22;36703;48.154;17.126;2022-11-15T16:01:48;12.90;63.50
50738;DHT22;36703;48.154;17.126;2022-11-15T16:05:50;12.90;63.50
50738;DHT22;36703;48.154;17.126;2022-11-15T16:09:53;12.90;63.50
50738;DHT22;36703;48.154;17.126;2022-11-15T16:14:02;12.90;63.50
50738;DHT22;36703;48.154;17.126;2022-11-15T16:18:05;13.00;63.60
50738;DHT22;36703;48.154;17.126;2022-11-15T16:22:08;13.00;63.60
50738;DHT22;36703;48.154;17.126;2022-11-15T16:26:25;13.00;63.70
50738;DHT22;36703;48.154;17.126;2022-11-15T16:30:27;13.00;63.80
50738;DHT22;36703;48.154;17.126;2022-11-15T16:34:30;13.00;63.80
50738;DHT22;36703;48.154;17.126;2022-11-15T16:38:32;13.00;63.90
50738;DHT22;36703;48.154;17.126;2022-11-15T16:42:34;13.10;63.90
50738;DHT22;36703;48.154;17.126;2022-11-15T16:46:35;13.10;63.90
50738;DHT22;36703;48.154;17.126;2022-11-15T16:50:37;13.10;64.00
50738;DHT22;36703;48.154;17.126;2022-11-15T16:54:41;13.20;64.10
50738;DHT22;36703;48.154;17.126;2022-11-15T16:58:43;13.20;64.10
50738;DHT22;36703;48.154;17.126;2022-11-15T17:02:46;13.20;64.10
50738;DHT22;36703;48.154;17.126;2022-11-15T17:06:48;13.20;64.20
50738;DHT22;36703;48.154;17.126;2022-11-15T17:10:50;13.20;64.20
50738;DHT22;36703;48.154;17.126;2022-11-15T17:14:52;13.20;64.30
50738;DHT22;36703;48.154;17.126;2022-11-15T17:18:53;13.20;64.40
50738;DHT22;36703;48.154;17.126;2022-11-15T17:22:55;13.10;64.50
50738;DHT22;36703;48.154;17.126;2022-11-15T17:26:57;13.10;64.60
50738;DHT22;36703;48.154;17.126;2022-11-15T17:30:58;13.20;64.80
50738;DHT22;36703;48.154;17.126;2022-11-15T17:35:00;13.20;64.90
50738;DHT22;36703;48.154;17.126;2022-11-15T17:39:03;13.20;64.80
50738;DHT22;36703;48.154;17.126;2022-11-15T17:43:05;13.20;64.90
50738;DHT22;36703;48.154;17.126;2022-11-15T17:47:07;13.20;65.00
50738;DHT22;36703;48.154;17.126;2022-11-15T17:51:14;13.30;65.10
50738;DHT22;36703;48.154;17.126;2022-11-15T17:55:16;13.30;65.10
50738;DHT22;36703;48.154;17.126;2022-11-15T17:59:18;13.30;65.10
50738;DHT22;36703;48.154;17.126;2022-11-15T18:03:20;13.40;65.20
50738;DHT22;36703;48.154;17.126;2022-11-15T18:07:24;13.40;65.10
50738;DHT22;36703;48.154;17.126;2022-11-15T18:11:37;13.30;65.10
50738;DHT22;36703;48.154;17.126;2022-11-15T18:15:40;13.30;65.20
50738;DHT22;36703;48.154;17.126;2022-11-15T18:19:41;13.40;65.30
50738;DHT22;36703;48.154;17.126;2022-11-15T18:23:43;13.30;65.20
50738;DHT22;36703;48.154;17.126;2022-11-15T18:27:45;13.30;65.30
50738;DHT22;36703;48.154;17.126;2022-11-15T18:31:48;13.30;65.40
50738;DHT22;36703;48.154;17.126;2022-11-15T18:36:03;13.30;65.50
50738;DHT22;36703;48.154;17.126;2022-11-15T18:40:08;13.30;65.60
50738;DHT22;36703;48.154;17.126;2022-11-15T18:44:09;13.30;65.60
50738;DHT22;36703;48.154;17.126;2022-11-15T18:48:11;13.30;65.50
50738;DHT22;36703;48.154;17.126;2022-11-15T18:52:13;13.30;65.50
50738;DHT22;36703;48.154;17.126;2022-11-15T18:56:17;13.20;65.60
50738;DHT22;36703;48.154;17.126;2022-11-15T19:00:20;13.30;65.70
50738;DHT22;36703;48.154;17.126;2022-11-15T19:04:22;13.30;65.70
50738;DHT22;36703;48.154;17.126;2022-11-15T19:08:23;13.40;65.70
50738;DHT22;36703;48.154;17.126;2022-11-15T19:12:25;13.40;65.70
50738;DHT22;36703;48.154;17.126;2022-11-15T19:16:27;13.40;65.50
50738;DHT22;36703;48.154;17.126;2022-11-15T19:20:29;13.40;65.50
50738;DHT22;36703;48.154;17.126;2022-11-15T19:24:31;13.30;65.50
50738;DHT22;36703;48.154;17.126;2022-11-15T19:28:34;13.30;65.70
50738;DHT22;36703;48.154;17.126;2022-11-15T19:32:35;13.30;65.60
50738;DHT22;36703;48.154;17.126;2022-11-15T19:36:42;13.30;65.60
50738;DHT22;36703;48.154;17.126;2022-11-15T19:40:44;13.30;65.60
50738;DHT22;36703;48.154;17.126;2022-11-15T19:44:46;13.30;65.60
50738;DHT22;36703;48.154;17.126;2022-11-15T19:48:48;13.30;65.70
50738;DHT22;36703;48.154;17.126;2022-11-15T19:52:50;13.30;65.70
50738;DHT22;36703;48.154;17.126;2022-11-15T19:56:52;13.30;65.60
50738;DHT22;36703;48.154;17.126;2022-11-15T20:01:04;13.30;65.60
50738;DHT22;36703;48.154;17.126;2022-11-15T20:05:10;13.30;65.60
50738;DHT22;36703;48.154;17.126;2022-11-15T20:09:13;13.20;65.50
50738;DHT22;36703;48.154;17.126;2022-11-15T20:13:16;13.30;65.50
50738;DHT22;36703;48.154;17.126;2022-11-15T20:17:18;13.30;65.50
50738;DHT22;36703;48.154;17.126;2022-11-15T20:21:20;13.30;65.40
50738;DHT22;36703;48.154;17.126;2022-11-15T20:25:22;13.30;65.30
50738;DHT22;36703;48.154;17.126;2022-11-15T20:29:23;13.30;65.30
50738;DHT22;36703;48.154;17.126;2022-11-15T20:33:25;13.30;65.30
50738;DHT22;36703;48.154;17.126;2022-11-15T20:37:27;13.20;65.30
50738;DHT22;36703;48.154;17.126;2022-11-15T20:41:29;13.30;65.40
50738;DHT22;36703;48.154;17.126;2022-11-15T20:45:31;13.30;65.30
50738;DHT22;36703;48.154;17.126;2022-11-15T20:49:32;13.30;65.30
50738;DHT22;36703;48.154;17.126;2022-11-15T20:53:34;13.30;65.30
50738;DHT22;36703;48.154;17.126;2022-11-15T20:57:36;13.30;65.30
50738;DHT22;36703;48.154;17.126;2022-11-15T21:01:37;13.20;65.20
50738;DHT22;36703;48.154;17.126;2022-11-15T21:05:43;13.20;65.20
50738;DHT22;36703;48.154;17.126;2022-11-15T21:09:45;13.10;65.30
50738;DHT22;36703;48.154;17.126;2022-11-15T21:14:06;13.10;65.30
50738;DHT22;36703;48.154;17.126;2022-11-15T21:18:07;13.10;65.30
50738;DHT22;36703;48.154;17.126;2022-11-15T21:22:11;13.10;65.30
50738;DHT22;36703;48.154;17.126;2022-11-15T21:26:14;13.10;65.30
50738;DHT22;36703;48.154;17.126;2022-11-15T21:30:16;13.00;65.30
50738;DHT22;36703;48.154;17.126;2022-11-15T21:34:18;13.10;65.50
50738;DHT22;36703;48.154;17.126;2022-11-15T21:38:21;13.10;65.50
50738;DHT22;36703;48.154;17.126;2022-11-15T21:42:23;13.10;65.50
50738;DHT22;36703;48.154;17.126;2022-11-15T21:46:26;13.10;65.40
50738;DHT22;36703;48.154;17.126;2022-11-15T21:50:29;13.10;65.40
50738;DHT22;36703;48.154;17.126;2022-11-15T21:54:31;13.00;65.30
50738;DHT22;36703;48.154;17.126;2022-11-15T21:58:33;12.90;65.40
50738;DHT22;36703;48.154;17.126;2022-11-15T22:02:35;12.90;65.50
50738;DHT22;36703;48.154;17.126;2022-11-15T22:06:37;12.90;65.60
50738;DHT22;36703;48.154;17.126;2022-11-15T22:10:39;12.90;65.70
50738;DHT22;36703;48.154;17.126;2022-11-15T22:14:40;12.80;65.60
50738;DHT22;36703;48.154;17.126;2022-11-15T22:18:42;12.80;65.70
50738;DHT22;36703;48.154;17.126;2022-11-15T22:22:43;12.80;65.70
50738;DHT22;36703;48.154;17.126;2022-11-15T22:26:45;12.80;65.80
50738;DHT22;36703;48.154;17.126;2022-11-15T22:30:49;12.70;65.80
50738;DHT22;36703;48.154;17.126;2022-11-15T22:34:52;12.70;65.90
50738;DHT22;36703;48.154;17.126;2022-11-15T22:38:54;12.70;65.80
50738;DHT22;36703;48.154;17.126;2022-11-15T22:42:55;12.70;66.00
50738;DHT22;36703;48.154;17.126;2022-11-15T22:46:57;12.70;66.00
50738;DHT22;36703;48.154;17.126;2022-11-15T22:50:59;12.60;65.90
50738;DHT22;36703;48.154;17.126;2022-11-15T22:55:01;12.60;66.00
50738;DHT22;36703;48.154;17.126;2022-11-15T22:59:03;12.50;66.00
50738;DHT22;36703;48.154;17.126;2022-11-15T23:03:04;12.50;66.20
50738;DHT22;36703;48.154;17.126;2022-11-15T23:07:08;12.50;66.30
50738;DHT22;36703;48.154;17.126;2022-11-15T23:11:10;12.40;66.20
50738;DHT22;36703;48.154;17.126;2022-11-15T23:15:30;12.40;66.20
50738;DHT22;36703;48.154;17.126;2022-11-15T23:19:52;12.40;66.40
50738;DHT22;36703;48.154;17.126;2022-11-15T23:23:54;12.40;66.50
50738;DHT22;36703;48.154;17.126;2022-11-15T23:27:55;12.40;66.50
50738;DHT22;36703;48.154;17.126;2022-11-15T23:31:57;12.40;66.50
50738;DHT22;36703;48.154;17.126;2022-11-15T23:36:17;12.40;66.20
50738;DHT22;36703;48.154;17.126;2022-11-15T23:40:53;12.30;66.20
50738;DHT22;36703;48.154;17.126;2022-11-15T23:44:56;12.30;66.40
50738;DHT22;36703;48.154;17.126;2022-11-15T23:48:58;12.30;66.40
50738;DHT22;36703;48.154;17.126;2022-11-15T23:53:00;12.30;66.30
50738;DHT22;36703;48.154;17.126;2022-11-15T23:57:01;12.30;67.10
